sensor_id;sensor_type;location;lat;lon;timestamp;pressure;altitude;pressure_sealevel;temperature;humidity
15477;BME280;7840;42.702;23.296;2023-02-22T00:00:44;95065.59;;;8.11;63.11
15477;BME280;7840;42.702;23.296;2023-02-22T00:03:17;95062.16;;;7.99;63.93
15477;BME280;7840;42.702;23.296;2023-02-22T00:05:51;95068.59;;;8.03;63.96
15477;BME280;7840;42.702;23.296;2023-02-22T00:08:21;95069.16;;;8.17;63.54
15477;BME280;7840;42.702;23.296;2023-02-22T00:10:49;95069.47;;;8.20;63.16
15477;BME280;7840;42.702;23.296;2023-02-22T00:13:19;95065.91;;;8.27;62.89
15477;BME280;7840;42.702;23.296;2023-02-22T00:15:48;95058.13;;;8.32;62.76
15477;BME280;7840;42.702;23.296;2023-02-22T00:18:18;95056.84;;;8.22;62.93
15477;BME280;7840;42.702;23.296;2023-02-22T00:20:46;95066.28;;;8.18;63.64
15477;BME280;7840;42.702;23.296;2023-02-22T00:23:17;95065.22;;;8.31;62.96
15477;BME280;7840;42.702;23.296;2023-02-22T00:25:46;95053.41;;;8.34;63.17
15477;BME280;7840;42.702;23.296;2023-02-22T00:28:15;95061.19;;;8.29;63.53
15477;BME280;7840;42.702;23.296;2023-02-22T00:30:44;95060.28;;;8.35;63.92
15477;BME280;7840;42.702;23.296;2023-02-22T00:33:14;95058.47;;;8.23;64.29
15477;BME280;7840;42.702;23.296;2023-02-22T00:35:44;95052.75;;;8.03;64.87
15477;BME280;7840;42.702;23.296;2023-02-22T00:38:13;95056.19;;;7.92;65.33
15477;BME280;7840;42.702;23.296;2023-02-22T00:40:41;95049.44;;;7.84;65.84
15477;BME280;7840;42.702;23.296;2023-02-22T00:43:10;95056.19;;;7.92;66.13
15477;BME280;7840;42.702;23.296;2023-02-22T00:45:38;95048.72;;;8.01;65.30
15477;BME280;7840;42.702;23.296;2023-02-22T00:48:06;95045.53;;;7.99;65.52
15477;BME280;7840;42.702;23.296;2023-02-22T00:50:34;95045.53;;;7.99;65.83
15477;BME280;7840;42.702;23.296;2023-02-22T00:53:04;95047.50;;;8.03;65.71
15477;BME280;7840;42.702;23.296;2023-02-22T00:55:34;95041.84;;;8.00;65.90
15477;BME280;7840;42.702;23.296;2023-02-22T00:58:03;95037.81;;;8.09;65.78
15477;BME280;7840;42.702;23.296;2023-02-22T01:00:33;95039.22;;;8.11;65.42
15477;BME280;7840;42.702;23.296;2023-02-22T01:03:01;95035.19;;;8.09;64.90
15477;BME280;7840;42.702;23.296;2023-02-22T01:05:33;95032.47;;;8.04;65.32
15477;BME280;7840;42.702;23.296;2023-02-22T01:08:07;95035.44;;;7.95;65.67
15477;BME280;7840;42.702;23.296;2023-02-22T01:10:35;95022.34;;;7.89;66.48
15477;BME280;7840;42.702;23.296;2023-02-22T01:13:04;95025.94;;;7.83;67.05
15477;BME280;7840;42.702;23.296;2023-02-22T01:15:35;95029.03;;;7.80;66.68
15477;BME280;7840;42.702;23.296;2023-02-22T01:18:03;95030.53;;;7.76;67.28
15477;BME280;7840;42.702;23.296;2023-02-22T01:20:32;95021.91;;;7.68;67.92
15477;BME280;7840;42.702;23.296;2023-02-22T01:23:01;95025.56;;;7.44;69.09
15477;BME280;7840;42.702;23.296;2023-02-22T01:25:33;95036.25;;;7.49;69.43
15477;BME280;7840;42.702;23.296;2023-02-22T01:28:02;95028.78;;;7.46;69.38
15477;BME280;7840;42.702;23.296;2023-02-22T01:30:33;95028.78;;;7.46;69.69
15477;BME280;7840;42.702;23.296;2023-02-22T01:33:03;95026.59;;;7.43;69.90
15477;BME280;7840;42.702;23.296;2023-02-22T01:35:33;95017.41;;;7.34;69.95
15477;BME280;7840;42.702;23.296;2023-02-22T01:38:00;95026.69;;;7.25;70.69
15477;BME280;7840;42.702;23.296;2023-02-22T01:40:31;95029.25;;;6.60;74.56
15477;BME280;7840;42.702;23.296;2023-02-22T01:43:02;95025.19;;;6.75;74.47
15477;BME280;7840;42.702;23.296;2023-02-22T01:45:44;95022.97;;;6.61;75.60
15477;BME280;7840;42.702;23.296;2023-02-22T01:48:33;95027.03;;;6.56;75.84
15477;BME280;7840;42.702;23.296;2023-02-22T01:51:21;95032.03;;;6.46;77.16
15477;BME280;7840;42.702;23.296;2023-02-22T01:53:52;95033.09;;;6.57;77.24
15477;BME280;7840;42.702;23.296;2023-02-22T01:56:22;95028.53;;;6.52;77.65
15477;BME280;7840;42.702;23.296;2023-02-22T01:59:08;95034.63;;;6.65;77.05
15477;BME280;7840;42.702;23.296;2023-02-22T02:01:38;95022.66;;;6.50;77.30
15477;BME280;7840;42.702;23.296;2023-02-22T02:04:19;95029.44;;;5.91;81.04
15477;BME280;7840;42.702;23.296;2023-02-22T02:06:54;95033.94;;;5.84;82.28
15477;BME280;7840;42.702;23.296;2023-02-22T02:55:28;95055.13;;;6.08;81.49
15477;BME280;7840;42.702;23.296;2023-02-22T02:57:56;95047.53;;;5.99;81.70
15477;BME280;7840;42.702;23.296;2023-02-22T03:00:27;95049.66;;;6.09;81.75
15477;BME280;7840;42.702;23.296;2023-02-22T03:03:16;95054.34;;;6.07;81.50
15477;BME280;7840;42.702;23.296;2023-02-22T03:06:14;95056.09;;;5.88;83.50
15477;BME280;7840;42.702;23.296;2023-02-22T03:08:50;95058.00;;;5.81;83.81
15477;BME280;7840;42.702;23.296;2023-02-22T03:11:28;95054.50;;;5.87;83.72
15477;BME280;7840;42.702;23.296;2023-02-22T03:14:05;95060.22;;;5.84;84.20
15477;BME280;7840;42.702;23.296;2023-02-22T03:16:46;95052.59;;;5.76;84.16
15477;BME280;7840;42.702;23.296;2023-02-22T03:19:38;95046.16;;;5.72;84.11
15477;BME280;7840;42.702;23.296;2023-02-22T03:22:10;95052.59;;;5.76;84.70
15477;BME280;7840;42.702;23.296;2023-02-22T03:25:07;95049.03;;;5.70;84.57
15477;BME280;7840;42.702;23.296;2023-02-22T03:27:41;95051.94;;;5.81;84.55
15477;BME280;7840;42.702;23.296;2023-02-22T03:30:13;95048.06;;;5.83;84.42
15477;BME280;7840;42.702;23.296;2023-02-22T03:32:48;95048.69;;;5.85;83.48
15477;BME280;7840;42.702;23.296;2023-02-22T03:35:20;95049.25;;;5.87;83.21
15477;BME280;7840;42.702;23.296;2023-02-22T03:37:55;95049.25;;;5.87;83.45
15477;BME280;7840;42.702;23.296;2023-02-22T03:40:30;95049.53;;;5.79;83.28
15477;BME280;7840;42.702;23.296;2023-02-22T03:43:05;95050.78;;;5.76;83.53
15477;BME280;7840;42.702;23.296;2023-02-22T03:45:40;95046.91;;;5.79;83.46
15477;BME280;7840;42.702;23.296;2023-02-22T03:48:17;95053.31;;;5.83;83.69
15477;BME280;7840;42.702;23.296;2023-02-22T03:50:48;95053.47;;;5.88;83.24
15477;BME280;7840;42.702;23.296;2023-02-22T03:53:37;95053.72;;;5.87;83.91
15477;BME280;7840;42.702;23.296;2023-02-22T03:56:07;95055.38;;;5.81;84.78
15477;BME280;7840;42.702;23.296;2023-02-22T03:58:40;95052.31;;;5.84;84.13
15477;BME280;7840;42.702;23.296;2023-02-22T04:01:11;95047.72;;;5.80;84.29
15477;BME280;7840;42.702;23.296;2023-02-22T04:03:39;95051.16;;;5.80;84.50
15477;BME280;7840;42.702;23.296;2023-02-22T04:06:07;95050.13;;;5.81;85.03
15477;BME280;7840;42.702;23.296;2023-02-22T04:08:35;95047.84;;;5.66;86.13
15477;BME280;7840;42.702;23.296;2023-02-22T04:11:03;95054.50;;;5.44;87.70
15477;BME280;7840;42.702;23.296;2023-02-22T04:13:31;95058.81;;;5.07;90.45
15477;BME280;7840;42.702;23.296;2023-02-22T04:15:59;95046.50;;;5.32;90.40
15477;BME280;7840;42.702;23.296;2023-02-22T04:18:27;95058.19;;;5.36;89.65
15477;BME280;7840;42.702;23.296;2023-02-22T04:20:55;95056.59;;;5.35;89.80
15477;BME280;7840;42.702;23.296;2023-02-22T04:23:23;95049.75;;;5.28;89.64
15477;BME280;7840;42.702;23.296;2023-02-22T04:25:55;95062.25;;;4.69;94.71
15477;BME280;7840;42.702;23.296;2023-02-22T04:28:23;95053.22;;;4.97;94.83
15477;BME280;7840;42.702;23.296;2023-02-22T04:30:51;95054.53;;;5.12;92.65
15477;BME280;7840;42.702;23.296;2023-02-22T04:33:37;95057.16;;;5.12;91.94
15477;BME280;7840;42.702;23.296;2023-02-22T04:36:06;95068.13;;;5.03;91.41
15477;BME280;7840;42.702;23.296;2023-02-22T04:38:38;95067.19;;;4.90;93.54
15477;BME280;7840;42.702;23.296;2023-02-22T04:41:11;95062.03;;;5.09;90.86
15477;BME280;7840;42.702;23.296;2023-02-22T04:43:39;95060.41;;;5.08;90.49
15477;BME280;7840;42.702;23.296;2023-02-22T04:46:12;95062.31;;;4.94;91.44
15477;BME280;7840;42.702;23.296;2023-02-22T04:48:45;95063.63;;;5.10;90.33
15477;BME280;7840;42.702;23.296;2023-02-22T04:51:19;95068.88;;;5.10;89.20
15477;BME280;7840;42.702;23.296;2023-02-22T04:53:47;95065.84;;;5.13;88.39
15477;BME280;7840;42.702;23.296;2023-02-22T04:56:16;95059.19;;;5.10;88.56
15477;BME280;7840;42.702;23.296;2023-02-22T04:58:44;95049.31;;;5.06;87.55
15477;BME280;7840;42.702;23.296;2023-02-22T05:01:11;95057.19;;;5.06;87.50
15477;BME280;7840;42.702;23.296;2023-02-22T05:03:40;95066.66;;;5.07;87.22
15477;BME280;7840;42.702;23.296;2023-02-22T05:06:09;95066.66;;;5.07;87.68
15477;BME280;7840;42.702;23.296;2023-02-22T05:08:46;95074.53;;;4.30;93.57
15477;BME280;7840;42.702;23.296;2023-02-22T05:11:27;95066.75;;;4.62;93.96
15477;BME280;7840;42.702;23.296;2023-02-22T05:13:57;95071.53;;;4.72;90.88
15477;BME280;7840;42.702;23.296;2023-02-22T05:16:28;95081.16;;;4.84;89.86
15477;BME280;7840;42.702;23.296;2023-02-22T05:18:59;95080.41;;;4.71;89.64
15477;BME280;7840;42.702;23.296;2023-02-22T05:21:43;95084.63;;;4.33;93.75
15477;BME280;7840;42.702;23.296;2023-02-22T05:24:14;95084.09;;;4.05;99.06
15477;BME280;7840;42.702;23.296;2023-02-22T05:26:42;95076.59;;;4.22;100.00
15477;BME280;7840;42.702;23.296;2023-02-22T05:29:19;95084.41;;;4.35;98.64
15477;BME280;7840;42.702;23.296;2023-02-22T05:32:15;95086.84;;;4.30;100.00
15477;BME280;7840;42.702;23.296;2023-02-22T05:34:44;95087.78;;;4.49;97.76
15477;BME280;7840;42.702;23.296;2023-02-22T05:37:41;95097.81;;;4.58;96.85
15477;BME280;7840;42.702;23.296;2023-02-22T05:40:12;95099.44;;;4.53;96.02
15477;BME280;7840;42.702;23.296;2023-02-22T05:42:40;95099.88;;;4.50;97.01
15477;BME280;7840;42.702;23.296;2023-02-22T05:45:18;95099.84;;;4.56;96.92
15477;BME280;7840;42.702;23.296;2023-02-22T05:47:46;95104.25;;;4.69;96.98
15477;BME280;7840;42.702;23.296;2023-02-22T05:50:15;95109.00;;;4.85;95.51
15477;BME280;7840;42.702;23.296;2023-02-22T05:52:44;95111.72;;;5.04;95.04
15477;BME280;7840;42.702;23.296;2023-02-22T05:55:13;95114.53;;;5.09;93.47
15477;BME280;7840;42.702;23.296;2023-02-22T05:57:41;95111.56;;;5.30;92.15
15477;BME280;7840;42.702;23.296;2023-02-22T06:00:13;95115.13;;;5.42;90.59
15477;BME280;7840;42.702;23.296;2023-02-22T06:02:41;95109.44;;;5.45;89.88
15477;BME280;7840;42.702;23.296;2023-02-22T06:05:09;95110.94;;;5.60;89.18
15477;BME280;7840;42.702;23.296;2023-02-22T06:07:48;95116.59;;;5.63;88.62
15477;BME280;7840;42.702;23.296;2023-02-22T06:10:21;95120.06;;;5.82;88.02
15477;BME280;7840;42.702;23.296;2023-02-22T06:15:38;95124.59;;;6.00;85.28
15477;BME280;7840;42.702;23.296;2023-02-22T06:18:08;95122.31;;;6.03;84.93
15477;BME280;7840;42.702;23.296;2023-02-22T06:20:37;95113.84;;;6.01;85.04
15477;BME280;7840;42.702;23.296;2023-02-22T06:23:07;95125.00;;;5.97;85.02
15477;BME280;7840;42.702;23.296;2023-02-22T08:12:22;95092.38;;;11.29;55.26
15477;BME280;7840;42.702;23.296;2023-02-22T08:14:51;95088.91;;;11.56;54.26
15477;BME280;7840;42.702;23.296;2023-02-22T08:17:22;95087.19;;;11.71;53.39
15477;BME280;7840;42.702;23.296;2023-02-22T08:20:07;95088.31;;;12.13;52.30
15477;BME280;7840;42.702;23.296;2023-02-22T08:22:35;95086.06;;;12.31;51.37
15477;BME280;7840;42.702;23.296;2023-02-22T08:25:03;95080.03;;;12.46;50.61
15477;BME280;7840;42.702;23.296;2023-02-22T08:27:42;95083.97;;;11.96;51.81
15477;BME280;7840;42.702;23.296;2023-02-22T08:30:14;95080.94;;;12.15;51.66
15477;BME280;7840;42.702;23.296;2023-02-22T08:33:01;95076.41;;;12.68;50.11
15477;BME280;7840;42.702;23.296;2023-02-22T08:35:31;95073.78;;;12.73;49.72
15477;BME280;7840;42.702;23.296;2023-02-22T08:38:04;95081.91;;;12.46;50.34
15477;BME280;7840;42.702;23.296;2023-02-22T08:40:34;95064.63;;;12.48;50.59
15477;BME280;7840;42.702;23.296;2023-02-22T08:43:06;95073.50;;;12.69;49.92
15477;BME280;7840;42.702;23.296;2023-02-22T08:45:36;95066.44;;;13.00;49.88
15477;BME280;7840;42.702;23.296;2023-02-22T08:48:04;95063.50;;;12.97;49.52
15477;BME280;7840;42.702;23.296;2023-02-22T08:50:35;95067.28;;;13.06;49.35
15477;BME280;7840;42.702;23.296;2023-02-22T08:53:05;95062.31;;;13.40;49.33
15477;BME280;7840;42.702;23.296;2023-02-22T08:55:36;95065.81;;;14.02;48.16
15477;BME280;7840;42.702;23.296;2023-02-22T08:58:12;95060.41;;;14.32;46.74
15477;BME280;7840;42.702;23.296;2023-02-22T09:00:45;95064.97;;;14.21;47.11
15477;BME280;7840;42.702;23.296;2023-02-22T09:03:14;95053.25;;;14.28;46.95
15477;BME280;7840;42.702;23.296;2023-02-22T09:05:43;95060.22;;;13.73;47.69
15477;BME280;7840;42.702;23.296;2023-02-22T09:08:15;95060.72;;;14.05;47.73
15477;BME280;7840;42.702;23.296;2023-02-22T09:10:56;95055.66;;;13.99;48.17
15477;BME280;7840;42.702;23.296;2023-02-22T09:13:28;95053.22;;;14.38;47.82
15477;BME280;7840;42.702;23.296;2023-02-22T09:16:13;95050.59;;;14.28;47.68
15477;BME280;7840;42.702;23.296;2023-02-22T09:18:46;95043.66;;;14.21;47.89
15477;BME280;7840;42.702;23.296;2023-02-22T09:21:14;95044.69;;;14.46;47.64
15477;BME280;7840;42.702;23.296;2023-02-22T09:23:46;95045.50;;;14.36;47.59
15477;BME280;7840;42.702;23.296;2023-02-22T09:26:22;95043.63;;;14.42;47.77
15477;BME280;7840;42.702;23.296;2023-02-22T09:28:56;95044.13;;;14.54;47.19
15477;BME280;7840;42.702;23.296;2023-02-22T09:31:40;95041.47;;;14.54;47.24
15477;BME280;7840;42.702;23.296;2023-02-22T09:34:08;95042.75;;;14.67;47.06
15477;BME280;7840;42.702;23.296;2023-02-22T09:36:54;95047.34;;;14.51;47.08
15477;BME280;7840;42.702;23.296;2023-02-22T09:39:46;95042.16;;;14.85;47.15
15477;BME280;7840;42.702;23.296;2023-02-22T09:42:22;95037.81;;;14.99;46.49
15477;BME280;7840;42.702;23.296;2023-02-22T09:45:11;95036.84;;;15.29;46.38
15477;BME280;7840;42.702;23.296;2023-02-22T09:47:44;95039.59;;;15.58;45.44
15477;BME280;7840;42.702;23.296;2023-02-22T09:50:19;95026.09;;;15.40;45.48
15477;BME280;7840;42.702;23.296;2023-02-22T09:53:19;95031.34;;;15.50;44.99
15477;BME280;7840;42.702;23.296;2023-02-22T09:55:59;95028.09;;;15.63;45.21
15477;BME280;7840;42.702;23.296;2023-02-22T09:58:46;95033.81;;;15.85;44.24
15477;BME280;7840;42.702;23.296;2023-02-22T10:01:32;95018.94;;;16.03;44.52
15477;BME280;7840;42.702;23.296;2023-02-22T10:07:03;95008.38;;;16.17;43.28
15477;BME280;7840;42.702;23.296;2023-02-22T10:09:39;95007.91;;;16.10;42.49
15477;BME280;7840;42.702;23.296;2023-02-22T10:12:10;95003.81;;;15.94;42.68
15477;BME280;7840;42.702;23.296;2023-02-22T10:15:04;94995.94;;;15.78;43.51
15477;BME280;7840;42.702;23.296;2023-02-22T10:17:43;94992.94;;;16.14;43.12
15477;BME280;7840;42.702;23.296;2023-02-22T10:20:21;94981.69;;;16.12;42.79
15477;BME280;7840;42.702;23.296;2023-02-22T10:23:07;94982.78;;;16.11;43.33
15477;BME280;7840;42.702;23.296;2023-02-22T10:26:04;94976.88;;;16.62;42.18
15477;BME280;7840;42.702;23.296;2023-02-22T10:29:15;94979.56;;;17.23;41.08
15477;BME280;7840;42.702;23.296;2023-02-22T10:31:46;94968.25;;;17.45;39.83
15477;BME280;7840;42.702;23.296;2023-02-22T10:34:42;94971.59;;;17.00;40.56
15477;BME280;7840;42.702;23.296;2023-02-22T10:37:21;94957.63;;;16.84;41.50
15477;BME280;7840;42.702;23.296;2023-02-22T10:39:53;94953.66;;;17.19;41.22
15477;BME280;7840;42.702;23.296;2023-02-22T10:42:25;94945.50;;;16.91;41.08
15477;BME280;7840;42.702;23.296;2023-02-22T10:44:54;94945.63;;;17.19;40.09
15477;BME280;7840;42.702;23.296;2023-02-22T10:47:23;94936.44;;;17.25;40.63
15477;BME280;7840;42.702;23.296;2023-02-22T10:50:19;94932.47;;;17.55;40.33
15477;BME280;7840;42.702;23.296;2023-02-22T10:53:18;94932.00;;;17.99;39.34
15477;BME280;7840;42.702;23.296;2023-02-22T10:56:15;94922.81;;;17.73;39.65
15477;BME280;7840;42.702;23.296;2023-02-22T10:58:59;94923.75;;;17.96;39.40
15477;BME280;7840;42.702;23.296;2023-02-22T11:02:16;94917.88;;;17.94;39.77
15477;BME280;7840;42.702;23.296;2023-02-22T11:04:48;94910.66;;;18.22;38.89
15477;BME280;7840;42.702;23.296;2023-02-22T11:07:25;94915.22;;;18.08;38.76
15477;BME280;7840;42.702;23.296;2023-02-22T11:09:59;94903.09;;;18.24;38.65
15477;BME280;7840;42.702;23.296;2023-02-22T11:12:31;94914.03;;;18.41;38.22
15477;BME280;7840;42.702;23.296;2023-02-22T11:15:26;94904.97;;;17.82;38.14
15477;BME280;7840;42.702;23.296;2023-02-22T11:17:57;94896.53;;;18.16;37.96
15477;BME280;7840;42.702;23.296;2023-02-22T11:20:29;94900.09;;;17.98;37.88
15477;BME280;7840;42.702;23.296;2023-02-22T11:23:01;94898.47;;;17.69;38.57
15477;BME280;7840;42.702;23.296;2023-02-22T11:25:31;94891.78;;;17.99;38.12
15477;BME280;7840;42.702;23.296;2023-02-22T11:28:07;94891.88;;;18.36;37.31
15477;BME280;7840;42.702;23.296;2023-02-22T11:31:12;94876.47;;;18.41;36.58
15477;BME280;7840;42.702;23.296;2023-02-22T11:34:29;94883.00;;;18.63;36.38
15477;BME280;7840;42.702;23.296;2023-02-22T11:37:28;94876.59;;;18.09;35.90
15477;BME280;7840;42.702;23.296;2023-02-22T11:40:15;94870.13;;;18.10;36.09
15477;BME280;7840;42.702;23.296;2023-02-22T11:42:47;94881.66;;;18.10;36.10
15477;BME280;7840;42.702;23.296;2023-02-22T11:45:29;94870.03;;;17.87;36.57
15477;BME280;7840;42.702;23.296;2023-02-22T11:48:18;94868.53;;;18.22;36.34
15477;BME280;7840;42.702;23.296;2023-02-22T11:51:11;94863.56;;;18.29;35.62
15477;BME280;7840;42.702;23.296;2023-02-22T11:57:16;94851.97;;;18.84;34.93
15477;BME280;7840;42.702;23.296;2023-02-22T12:00:02;94856.16;;;19.21;34.17
15477;BME280;7840;42.702;23.296;2023-02-22T12:06:17;94853.66;;;18.80;34.11
15477;BME280;7840;42.702;23.296;2023-02-22T12:09:00;94842.69;;;18.68;34.62
15477;BME280;7840;42.702;23.296;2023-02-22T12:11:54;94841.34;;;18.79;34.37
15477;BME280;7840;42.702;23.296;2023-02-22T12:14:33;94842.09;;;18.43;34.20
15477;BME280;7840;42.702;23.296;2023-02-22T12:17:18;94848.50;;;17.92;35.37
15477;BME280;7840;42.702;23.296;2023-02-22T12:20:13;94830.13;;;18.77;34.40
15477;BME280;7840;42.702;23.296;2023-02-22T12:23:06;94832.56;;;19.09;33.81
15477;BME280;7840;42.702;23.296;2023-02-22T12:26:10;94833.16;;;19.06;33.92
15477;BME280;7840;42.702;23.296;2023-02-22T12:28:44;94827.13;;;18.65;34.64
15477;BME280;7840;42.702;23.296;2023-02-22T12:31:20;94834.44;;;18.86;34.21
15477;BME280;7840;42.702;23.296;2023-02-22T12:33:59;94818.22;;;19.14;33.57
15477;BME280;7840;42.702;23.296;2023-02-22T12:36:34;94813.16;;;18.90;33.87
15477;BME280;7840;42.702;23.296;2023-02-22T12:39:24;94817.50;;;18.64;34.14
15477;BME280;7840;42.702;23.296;2023-02-22T12:42:38;94825.16;;;18.70;33.90
15477;BME280;7840;42.702;23.296;2023-02-22T12:45:13;94818.44;;;18.45;34.23
15477;BME280;7840;42.702;23.296;2023-02-22T12:47:47;94812.22;;;18.72;33.99
15477;BME280;7840;42.702;23.296;2023-02-22T12:50:20;94809.97;;;19.33;33.22
15477;BME280;7840;42.702;23.296;2023-02-22T12:52:54;94815.22;;;18.93;33.90
15477;BME280;7840;42.702;23.296;2023-02-22T12:55:25;94811.28;;;18.54;35.22
15477;BME280;7840;42.702;23.296;2023-02-22T12:58:00;94813.03;;;19.18;33.93
15477;BME280;7840;42.702;23.296;2023-02-22T13:00:38;94805.84;;;19.04;34.07
15477;BME280;7840;42.702;23.296;2023-02-22T13:03:34;94799.06;;;19.60;32.81
15477;BME280;7840;42.702;23.296;2023-02-22T13:06:43;94794.66;;;19.64;32.24
15477;BME280;7840;42.702;23.296;2023-02-22T13:09:48;94795.78;;;19.41;32.97
15477;BME280;7840;42.702;23.296;2023-02-22T13:12:28;94801.38;;;19.00;33.20
15477;BME280;7840;42.702;23.296;2023-02-22T13:15:18;94790.81;;;19.26;33.12
15477;BME280;7840;42.702;23.296;2023-02-22T13:18:12;94796.47;;;19.55;32.51
15477;BME280;7840;42.702;23.296;2023-02-22T13:20:45;94789.75;;;19.58;32.81
15477;BME280;7840;42.702;23.296;2023-02-22T13:23:23;94793.59;;;19.43;32.23
15477;BME280;7840;42.702;23.296;2023-02-22T13:26:09;94793.25;;;19.13;32.75
15477;BME280;7840;42.702;23.296;2023-02-22T13:28:58;94791.75;;;18.76;34.02
15477;BME280;7840;42.702;23.296;2023-02-22T13:31:43;94790.84;;;19.03;33.92
15477;BME280;7840;42.702;23.296;2023-02-22T13:34:48;94786.47;;;19.70;32.67
15477;BME280;7840;42.702;23.296;2023-02-22T13:37:50;94780.56;;;20.07;32.50
15477;BME280;7840;42.702;23.296;2023-02-22T13:40:54;94782.00;;;20.31;32.49
15477;BME280;7840;42.702;23.296;2023-02-22T13:43:54;94774.44;;;19.76;32.75
15477;BME280;7840;42.702;23.296;2023-02-22T13:49:51;94777.94;;;19.45;32.93
15477;BME280;7840;42.702;23.296;2023-02-22T13:52:29;94775.75;;;19.87;32.48
15477;BME280;7840;42.702;23.296;2023-02-22T13:55:01;94771.31;;;19.82;32.59
15477;BME280;7840;42.702;23.296;2023-02-22T13:57:38;94770.63;;;20.25;32.25
15477;BME280;7840;42.702;23.296;2023-02-22T14:00:46;94783.63;;;20.40;32.14
15477;BME280;7840;42.702;23.296;2023-02-22T14:03:35;94786.19;;;20.45;32.04
15477;BME280;7840;42.702;23.296;2023-02-22T14:10:00;94772.00;;;21.26;31.06
15477;BME280;7840;42.702;23.296;2023-02-22T14:12:59;94776.81;;;21.03;31.32
15477;BME280;7840;42.702;23.296;2023-02-22T14:15:30;94780.59;;;21.11;31.31
15477;BME280;7840;42.702;23.296;2023-02-22T14:17:58;94784.91;;;20.52;31.36
15477;BME280;7840;42.702;23.296;2023-02-22T14:20:36;94773.53;;;20.46;31.75
15477;BME280;7840;42.702;23.296;2023-02-22T14:23:44;94772.41;;;20.82;31.12
15477;BME280;7840;42.702;23.296;2023-02-22T14:26:16;94779.66;;;21.71;29.43
15477;BME280;7840;42.702;23.296;2023-02-22T14:29:13;94779.03;;;21.10;30.45
15477;BME280;7840;42.702;23.296;2023-02-22T14:32:04;94787.13;;;20.84;31.40
15477;BME280;7840;42.702;23.296;2023-02-22T14:37:43;94770.19;;;20.58;32.03
15477;BME280;7840;42.702;23.296;2023-02-22T14:40:47;94778.72;;;20.86;31.33
15477;BME280;7840;42.702;23.296;2023-02-22T14:43:21;94779.38;;;20.83;29.81
15477;BME280;7840;42.702;23.296;2023-02-22T14:46:04;94768.91;;;21.07;29.67
15477;BME280;7840;42.702;23.296;2023-02-22T14:48:39;94777.94;;;20.85;30.32
15477;BME280;7840;42.702;23.296;2023-02-22T14:51:18;94770.84;;;20.81;30.60
15477;BME280;7840;42.702;23.296;2023-02-22T14:54:05;94769.38;;;21.00;30.28
15477;BME280;7840;42.702;23.296;2023-02-22T14:57:02;94768.53;;;21.17;30.28
15477;BME280;7840;42.702;23.296;2023-02-22T14:59:56;94778.13;;;20.54;31.74
15477;BME280;7840;42.702;23.296;2023-02-22T15:02:39;94769.84;;;20.42;32.24
15477;BME280;7840;42.702;23.296;2023-02-22T15:05:28;94775.75;;;19.87;33.79
15477;BME280;7840;42.702;23.296;2023-02-22T15:07:59;94765.31;;;19.77;33.87
15477;BME280;7840;42.702;23.296;2023-02-22T15:10:46;94769.41;;;19.83;34.03
15477;BME280;7840;42.702;23.296;2023-02-22T15:13:31;94765.06;;;20.13;33.93
15477;BME280;7840;42.702;23.296;2023-02-22T15:16:01;94774.97;;;19.55;34.98
15477;BME280;7840;42.702;23.296;2023-02-22T15:19:03;94772.09;;;19.43;35.28
15477;BME280;7840;42.702;23.296;2023-02-22T15:21:43;94773.59;;;19.27;35.46
15477;BME280;7840;42.702;23.296;2023-02-22T15:24:33;94777.66;;;19.16;35.65
15477;BME280;7840;42.702;23.296;2023-02-22T15:27:19;94773.75;;;18.77;36.71
15477;BME280;7840;42.702;23.296;2023-02-22T15:29:55;94785.28;;;18.41;37.62
15477;BME280;7840;42.702;23.296;2023-02-22T15:32:30;94774.63;;;18.14;38.10
15477;BME280;7840;42.702;23.296;2023-02-22T15:35:12;94780.72;;;18.06;38.26
15477;BME280;7840;42.702;23.296;2023-02-22T15:37:46;94777.75;;;17.93;38.79
15477;BME280;7840;42.702;23.296;2023-02-22T15:40:31;94780.69;;;17.23;39.96
15477;BME280;7840;42.702;23.296;2023-02-22T15:43:19;94778.13;;;16.99;40.90
15477;BME280;7840;42.702;23.296;2023-02-22T15:46:02;94786.31;;;16.75;41.30
15477;BME280;7840;42.702;23.296;2023-02-22T15:48:31;94782.75;;;16.61;41.84
15477;BME280;7840;42.702;23.296;2023-02-22T15:51:06;94785.06;;;16.49;41.94
15477;BME280;7840;42.702;23.296;2023-02-22T15:53:39;94790.06;;;16.36;42.58
15477;BME280;7840;42.702;23.296;2023-02-22T15:56:11;94786.22;;;16.42;42.66
15477;BME280;7840;42.702;23.296;2023-02-22T15:58:42;94789.69;;;16.24;43.18
15477;BME280;7840;42.702;23.296;2023-02-22T16:01:12;94783.81;;;16.03;43.55
15477;BME280;7840;42.702;23.296;2023-02-22T16:03:44;94792.69;;;15.99;43.79
15477;BME280;7840;42.702;23.296;2023-02-22T16:06:26;94797.03;;;15.95;44.29
15477;BME280;7840;42.702;23.296;2023-02-22T16:09:09;94793.97;;;15.82;44.52
15477;BME280;7840;42.702;23.296;2023-02-22T16:14:43;94807.50;;;15.67;45.08
15477;BME280;7840;42.702;23.296;2023-02-22T16:17:33;94815.03;;;15.60;45.38
15477;BME280;7840;42.702;23.296;2023-02-22T16:20:32;94810.31;;;15.52;45.77
15477;BME280;7840;42.702;23.296;2023-02-22T16:23:22;94813.59;;;15.44;45.80
15477;BME280;7840;42.702;23.296;2023-02-22T16:26:24;94816.41;;;15.28;46.34
15477;BME280;7840;42.702;23.296;2023-02-22T16:29:07;94824.56;;;15.13;46.82
15477;BME280;7840;42.702;23.296;2023-02-22T16:31:40;94820.78;;;15.19;46.84
15477;BME280;7840;42.702;23.296;2023-02-22T16:34:28;94833.63;;;15.17;47.21
15477;BME280;7840;42.702;23.296;2023-02-22T16:37:16;94829.44;;;15.06;47.31
15477;BME280;7840;42.702;23.296;2023-02-22T16:39:59;94820.47;;;14.97;47.69
15477;BME280;7840;42.702;23.296;2023-02-22T16:42:27;94827.91;;;14.95;47.98
15477;BME280;7840;42.702;23.296;2023-02-22T16:45:15;94833.72;;;14.68;48.89
15477;BME280;7840;42.702;23.296;2023-02-22T16:47:46;94835.66;;;14.62;49.04
15477;BME280;7840;42.702;23.296;2023-02-22T16:50:28;94841.56;;;14.54;49.60
15477;BME280;7840;42.702;23.296;2023-02-22T16:52:55;94843.41;;;14.54;49.72
15477;BME280;7840;42.702;23.296;2023-02-22T16:55:24;94842.97;;;14.36;50.57
15477;BME280;7840;42.702;23.296;2023-02-22T16:57:55;94846.94;;;14.39;50.54
15477;BME280;7840;42.702;23.296;2023-02-22T17:00:26;94845.75;;;14.11;51.27